createdAt,value
2017-12-25T00:02:10.716Z,96.80
2017-12-25T00:04:38.190Z,97.00
2017-12-25T00:07:05.646Z,97.40
2017-12-25T00:09:33.081Z,97.80
2017-12-25T00:12:00.524Z,97.40
2017-12-25T00:14:27.981Z,97.60
2017-12-25T00:16:55.416Z,97.50
2017-12-25T00:19:22.850Z,97.50
2017-12-25T00:21:50.314Z,97.90
2017-12-25T00:24:17.736Z,97.40
2017-12-25T00:26:45.173Z,97.50
2017-12-25T00:29:12.600Z,96.90
2017-12-25T00:31:40.877Z,96.70
2017-12-25T00:34:08.300Z,96.70
2017-12-25T00:36:35.734Z,96.80
2017-12-25T00:39:03.169Z,96.70
2017-12-25T00:41:30.608Z,96.60
2017-12-25T00:43:58.057Z,96.70
2017-12-25T00:46:26.264Z,96.40
2017-12-25T00:48:53.693Z,96.30
2017-12-25T00:51:21.123Z,96.90
2017-12-25T00:53:48.556Z,97.30
2017-12-25T00:56:15.991Z,97.30
2017-12-25T00:58:43.434Z,96.90
2017-12-25T01:01:10.865Z,97.20
2017-12-25T01:03:39.069Z,97.40
2017-12-25T01:06:06.508Z,97.40
2017-12-25T01:08:34.708Z,96.90
2017-12-25T01:11:02.141Z,96.80
2017-12-25T01:13:30.349Z,96.80
2017-12-25T01:15:57.776Z,96.80
2017-12-25T01:18:25.985Z,96.50
2017-12-25T01:20:53.425Z,96.40
2017-12-25T01:23:20.860Z,96.20
2017-12-25T01:25:49.063Z,96.80
2017-12-25T01:28:16.490Z,96.70
2017-12-25T01:30:44.684Z,96.60
2017-12-25T01:33:12.140Z,96.60
2017-12-25T01:35:39.568Z,96.30
2017-12-25T01:38:07.778Z,96.90
2017-12-25T01:40:35.200Z,96.40
2017-12-25T01:43:03.409Z,96.40
2017-12-25T01:45:30.852Z,96.20
2017-12-25T01:47:59.056Z,95.60
2017-12-25T01:50:26.498Z,95.60
2017-12-25T01:52:53.921Z,95.80
2017-12-25T01:55:23.953Z,95.70
2017-12-25T01:58:12.985Z,96.00
2017-12-25T02:03:36.869Z,96.80
2017-12-25T02:09:12.011Z,96.00
2017-12-25T02:11:39.845Z,95.90
2017-12-25T02:14:08.045Z,96.30
2017-12-25T02:16:35.482Z,96.30
2017-12-25T02:19:02.924Z,96.00
2017-12-25T02:21:31.113Z,96.40
2017-12-25T02:23:58.551Z,96.40
2017-12-25T02:26:26.767Z,97.60
2017-12-25T02:28:54.193Z,97.60
2017-12-25T02:31:22.393Z,97.90
2017-12-25T02:33:49.842Z,97.80
2017-12-25T02:36:17.277Z,97.90
2017-12-25T02:38:45.509Z,97.30
2017-12-25T02:41:13.708Z,97.10
2017-12-25T02:43:41.164Z,97.10
2017-12-25T02:46:08.597Z,96.90
2017-12-25T02:48:36.042Z,97.00
2017-12-25T02:51:03.473Z,97.20
2017-12-25T02:53:30.947Z,97.10
2017-12-25T02:55:58.369Z,96.80
2017-12-25T02:58:26.568Z,97.60
2017-12-25T03:00:54.000Z,97.60
2017-12-25T03:03:22.205Z,97.30
2017-12-25T03:05:49.645Z,97.30
2017-12-25T03:08:17.850Z,96.90
2017-12-25T03:10:45.284Z,96.90
2017-12-25T03:13:12.742Z,96.80
2017-12-25T03:15:40.169Z,96.60
2017-12-25T03:18:07.612Z,96.70
2017-12-25T03:20:35.040Z,96.80
2017-12-25T03:23:02.482Z,97.20
2017-12-25T03:25:29.904Z,97.20
2017-12-25T03:27:58.107Z,97.70
2017-12-25T03:30:26.457Z,97.10
2017-12-25T03:32:53.907Z,97.10
2017-12-25T03:35:21.329Z,97.40
2017-12-25T03:37:48.789Z,97.90
2017-12-25T03:40:16.360Z,97.80
2017-12-25T03:42:43.797Z,97.70
2017-12-25T03:45:11.236Z,98.20
2017-12-25T03:47:38.676Z,98.60
2017-12-25T03:50:06.884Z,97.80
2017-12-25T03:52:34.305Z,97.80
2017-12-25T03:55:02.515Z,97.60
2017-12-25T03:57:29.941Z,97.60
2017-12-25T03:59:58.164Z,97.70
2017-12-25T04:02:25.579Z,97.60
2017-12-25T04:04:53.790Z,97.50
2017-12-25T04:07:21.220Z,97.50
2017-12-25T04:09:48.661Z,97.70
2017-12-25T04:12:17.153Z,98.20
2017-12-25T04:14:44.584Z,98.20
2017-12-25T04:17:12.017Z,98.10
2017-12-25T04:19:39.485Z,98.00
2017-12-25T04:22:06.903Z,98.20
2017-12-25T04:24:34.370Z,97.90
2017-12-25T04:27:01.807Z,97.80
2017-12-25T04:29:29.240Z,97.90
2017-12-25T04:31:57.436Z,98.00
2017-12-25T04:34:24.889Z,98.40
2017-12-25T04:36:52.317Z,97.80
2017-12-25T04:39:19.763Z,97.50
2017-12-25T04:41:47.193Z,97.70
2017-12-25T04:44:14.624Z,98.10
2017-12-25T04:46:42.052Z,97.90
2017-12-25T04:49:10.265Z,97.40
2017-12-25T04:51:37.689Z,97.40
2017-12-25T04:54:05.898Z,97.90
2017-12-25T04:56:33.359Z,97.60
2017-12-25T04:59:00.818Z,97.90
2017-12-25T05:01:28.241Z,97.90
2017-12-25T05:03:56.443Z,97.20
2017-12-25T05:06:23.889Z,97.10
2017-12-25T05:08:51.329Z,97.60
2017-12-25T05:11:19.528Z,97.40
2017-12-25T05:13:46.967Z,97.30
2017-12-25T05:16:15.166Z,97.20
2017-12-25T05:18:42.610Z,97.10
2017-12-25T05:21:10.054Z,97.40
2017-12-25T05:23:38.249Z,96.90
2017-12-25T05:26:05.680Z,96.90
2017-12-25T05:28:33.898Z,97.50
2017-12-25T05:31:01.339Z,97.10
2017-12-25T05:33:28.779Z,96.90
2017-12-25T05:35:56.985Z,96.70
2017-12-25T05:38:24.412Z,96.70
2017-12-25T05:40:51.861Z,96.10
2017-12-25T05:43:20.060Z,96.50
2017-12-25T05:45:47.497Z,96.40
2017-12-25T05:48:16.625Z,96.40
2017-12-25T05:50:44.058Z,96.30
2017-12-25T05:53:12.261Z,96.50
2017-12-25T05:55:39.706Z,96.50
2017-12-25T05:58:07.901Z,96.30
2017-12-25T06:00:35.349Z,96.30
2017-12-25T06:03:02.790Z,95.80
2017-12-25T06:05:30.233Z,95.50
2017-12-25T06:07:58.428Z,95.50
2017-12-25T06:10:25.879Z,95.50
2017-12-25T06:12:54.105Z,95.60
2017-12-25T06:15:22.315Z,95.70
2017-12-25T06:17:50.522Z,96.20
2017-12-25T06:20:17.952Z,96.10
2017-12-25T06:22:46.157Z,96.30
2017-12-25T06:25:13.588Z,96.30
2017-12-25T06:27:41.025Z,96.50
2017-12-25T06:30:09.229Z,96.90
2017-12-25T06:32:36.668Z,96.90
2017-12-25T06:35:04.875Z,95.90
2017-12-25T06:37:32.319Z,95.90
2017-12-25T06:39:59.745Z,95.70
2017-12-25T06:42:27.945Z,95.50
2017-12-25T06:44:55.378Z,95.50
2017-12-25T06:47:23.581Z,95.40
2017-12-25T06:49:51.005Z,95.40
2017-12-25T06:52:18.460Z,95.20
2017-12-25T06:54:45.885Z,94.70
2017-12-25T06:57:13.334Z,95.20
2017-12-25T06:59:40.760Z,94.80
2017-12-25T07:02:08.206Z,94.00
2017-12-25T07:04:36.403Z,94.10
2017-12-25T07:07:03.840Z,94.10
2017-12-25T07:09:32.032Z,94.20
2017-12-25T07:11:59.565Z,94.20
2017-12-25T07:14:27.152Z,93.90
2017-12-25T07:16:54.596Z,93.60
2017-12-25T07:19:22.802Z,93.50
2017-12-25T07:21:50.233Z,93.50
2017-12-25T07:24:17.666Z,93.60
2017-12-25T07:26:45.097Z,93.80
2017-12-25T07:29:12.528Z,93.40
2017-12-25T07:31:39.962Z,93.30
2017-12-25T07:34:07.399Z,93.40
2017-12-25T07:36:35.605Z,92.90
2017-12-25T07:39:03.041Z,92.80
2017-12-25T07:41:31.251Z,92.60
2017-12-25T07:43:58.725Z,92.60
2017-12-25T07:46:26.148Z,92.70
2017-12-25T07:48:53.580Z,92.50
2017-12-25T07:51:21.785Z,92.80
2017-12-25T07:53:49.219Z,92.70
2017-12-25T07:56:16.847Z,92.70
2017-12-25T07:58:44.285Z,92.70
2017-12-25T08:01:11.733Z,92.10
2017-12-25T08:03:39.189Z,92.70
2017-12-25T08:06:06.609Z,92.50
2017-12-25T08:08:34.809Z,91.80
2017-12-25T08:11:02.283Z,91.80
2017-12-25T08:13:29.719Z,91.90
2017-12-25T08:15:57.154Z,92.10
2017-12-25T08:18:24.600Z,92.50
2017-12-25T08:20:52.015Z,92.10
2017-12-25T08:23:19.476Z,92.30
2017-12-25T08:25:46.905Z,92.50
2017-12-25T08:28:14.909Z,92.60
2017-12-25T08:30:43.100Z,92.50
2017-12-25T08:33:10.542Z,92.50
2017-12-25T08:35:37.989Z,92.90
2017-12-25T08:38:06.209Z,92.80
2017-12-25T08:40:33.655Z,92.50
2017-12-25T08:43:01.697Z,92.20
2017-12-25T08:45:29.137Z,91.80
2017-12-25T08:47:56.565Z,92.20
2017-12-25T08:50:24.762Z,92.20
2017-12-25T08:52:52.202Z,92.20
2017-12-25T08:55:20.443Z,93.10
2017-12-25T08:57:47.830Z,93.10
2017-12-25T09:00:16.942Z,92.70
2017-12-25T09:02:44.381Z,92.70
2017-12-25T09:05:12.590Z,92.10
2017-12-25T09:07:40.018Z,92.00
2017-12-25T09:10:08.257Z,91.20
2017-12-25T09:12:35.674Z,91.20
2017-12-25T09:15:03.098Z,91.20
2017-12-25T09:17:31.301Z,92.60
2017-12-25T09:19:58.736Z,92.20
2017-12-25T09:22:26.949Z,91.80
2017-12-25T09:24:54.368Z,91.70
2017-12-25T09:27:22.568Z,92.70
2017-12-25T09:29:50.017Z,92.60
2017-12-25T09:32:18.220Z,91.80
2017-12-25T09:34:45.645Z,91.80
2017-12-25T09:37:13.865Z,92.40
2017-12-25T09:39:41.301Z,92.40
2017-12-25T09:42:08.731Z,92.50
2017-12-25T09:44:36.951Z,92.50
2017-12-25T09:47:04.402Z,92.50
2017-12-25T09:49:31.837Z,92.70
2017-12-25T09:51:59.285Z,92.60
2017-12-25T09:54:26.724Z,92.10
2017-12-25T09:56:54.920Z,92.40
2017-12-25T09:59:22.367Z,92.40
2017-12-25T10:01:50.574Z,91.60
2017-12-25T10:04:18.005Z,91.50
2017-12-25T10:06:45.436Z,91.10
2017-12-25T10:09:12.920Z,91.50
2017-12-25T10:11:41.156Z,92.60
2017-12-25T10:14:08.589Z,92.50
2017-12-25T10:16:36.013Z,92.20
2017-12-25T10:19:03.445Z,92.00
2017-12-25T10:21:30.885Z,91.90
2017-12-25T10:23:59.828Z,92.60
2017-12-25T10:26:27.261Z,92.60
2017-12-25T10:28:55.478Z,93.40
2017-12-25T10:31:23.366Z,93.40
2017-12-25T10:33:50.806Z,92.90
2017-12-25T10:36:18.258Z,92.60
2017-12-25T10:38:45.696Z,92.90
2017-12-25T10:41:13.126Z,92.90
2017-12-25T10:43:41.329Z,91.90
2017-12-25T10:46:08.757Z,91.90
2017-12-25T10:48:36.973Z,91.40
2017-12-25T10:51:04.435Z,91.30
2017-12-25T10:53:31.868Z,91.70
2017-12-25T10:56:00.057Z,91.80
2017-12-25T10:58:27.500Z,91.80
2017-12-25T11:00:55.685Z,91.80
2017-12-25T11:03:23.129Z,91.80
2017-12-25T11:05:51.317Z,92.10
2017-12-25T11:08:18.778Z,92.00
2017-12-25T11:10:46.206Z,91.80
2017-12-25T11:13:14.423Z,91.40
2017-12-25T11:15:41.852Z,91.40
2017-12-25T11:18:10.059Z,91.70
2017-12-25T11:20:37.507Z,91.70
2017-12-25T11:23:04.940Z,91.90
2017-12-25T11:25:33.137Z,91.70
2017-12-25T11:28:00.566Z,91.70
2017-12-25T11:30:28.878Z,90.50
2017-12-25T11:32:56.325Z,90.40
2017-12-25T11:35:23.754Z,90.80
2017-12-25T11:37:51.949Z,90.90
2017-12-25T11:40:19.384Z,90.90
2017-12-25T11:42:47.582Z,90.20
2017-12-25T11:45:15.021Z,90.20
2017-12-25T11:47:43.237Z,89.40
2017-12-25T11:50:10.695Z,89.40
2017-12-25T11:52:38.121Z,89.20
2017-12-25T11:55:06.312Z,90.20
2017-12-25T11:57:33.758Z,90.20
2017-12-25T12:00:01.197Z,90.00
2017-12-25T12:02:29.413Z,90.40
2017-12-25T12:04:56.868Z,90.40
2017-12-25T12:07:24.297Z,90.40
2017-12-25T12:09:52.509Z,90.30
2017-12-25T12:12:19.955Z,90.30
2017-12-25T12:14:47.385Z,90.50
2017-12-25T12:17:15.579Z,90.10
2017-12-25T12:19:43.017Z,90.10
2017-12-25T12:22:11.228Z,88.70
2017-12-25T12:24:38.663Z,88.60
2017-12-25T12:27:06.879Z,89.30
2017-12-25T12:29:34.314Z,88.90
2017-12-25T12:32:01.737Z,87.80
2017-12-25T12:34:29.950Z,89.10
2017-12-25T12:36:57.456Z,89.10
2017-12-25T12:39:24.833Z,88.70
2017-12-25T12:41:53.046Z,89.70
2017-12-25T12:44:20.496Z,89.70
2017-12-25T12:46:47.929Z,90.00
2017-12-25T12:49:15.389Z,90.00
2017-12-25T12:51:43.569Z,90.10
2017-12-25T12:54:11.000Z,90.00
2017-12-25T12:56:39.204Z,89.10
2017-12-25T12:59:06.653Z,89.10
2017-12-25T13:01:34.087Z,88.40
2017-12-25T13:04:01.524Z,88.40
2017-12-25T13:06:28.961Z,88.40
2017-12-25T13:08:56.429Z,89.40
2017-12-25T13:11:23.856Z,88.80
2017-12-25T13:13:51.292Z,88.20
2017-12-25T13:16:20.665Z,89.60
2017-12-25T13:18:48.093Z,89.60
2017-12-25T13:21:15.537Z,89.10
2017-12-25T13:23:42.952Z,88.50
2017-12-25T13:26:11.165Z,88.70
2017-12-25T13:28:38.597Z,88.50
2017-12-25T13:31:06.801Z,87.90
2017-12-25T13:33:34.229Z,87.90
2017-12-25T13:36:01.669Z,87.30
2017-12-25T13:38:29.899Z,87.00
2017-12-25T13:40:57.314Z,86.60
2017-12-25T13:43:25.510Z,87.10
2017-12-25T13:45:53.457Z,87.10
2017-12-25T13:48:21.665Z,87.90
2017-12-25T13:50:49.122Z,87.40
2017-12-25T13:53:17.464Z,86.90
2017-12-25T13:55:45.685Z,85.60
2017-12-25T13:58:13.121Z,85.60
2017-12-25T14:00:40.586Z,85.00
2017-12-25T14:03:08.754Z,85.80
2017-12-25T14:05:36.189Z,85.20
2017-12-25T14:08:04.412Z,84.70
2017-12-25T14:10:31.856Z,84.70
2017-12-25T14:12:59.311Z,84.70
2017-12-25T14:15:26.763Z,85.10
2017-12-25T14:17:54.221Z,84.20
2017-12-25T14:20:21.664Z,84.20
2017-12-25T14:22:49.093Z,83.60
2017-12-25T14:25:17.179Z,84.20
2017-12-25T14:27:45.389Z,84.70
2017-12-25T14:30:12.812Z,84.70
2017-12-25T14:32:41.031Z,83.80
2017-12-25T14:35:08.477Z,83.70
2017-12-25T14:37:35.914Z,83.90
2017-12-25T14:40:04.113Z,83.90
2017-12-25T14:42:31.835Z,83.90
2017-12-25T14:45:00.034Z,84.10
2017-12-25T14:47:27.469Z,84.10
2017-12-25T14:49:55.662Z,84.90
2017-12-25T14:52:23.117Z,84.90
2017-12-25T14:54:51.318Z,85.90
2017-12-25T14:57:18.758Z,85.90
2017-12-25T14:59:46.218Z,86.00
2017-12-25T15:02:13.655Z,86.10
2017-12-25T15:04:41.846Z,86.30
2017-12-25T15:07:09.291Z,86.20
2017-12-25T15:09:37.481Z,86.00
2017-12-25T15:12:06.084Z,85.60
2017-12-25T15:14:33.497Z,85.50
2017-12-25T15:17:01.767Z,86.20
2017-12-25T15:19:29.188Z,86.20
2017-12-25T15:21:56.629Z,86.60
2017-12-25T15:24:24.072Z,87.40
2017-12-25T15:26:51.500Z,87.10
2017-12-25T15:29:19.721Z,86.30
2017-12-25T15:31:47.157Z,86.10
2017-12-25T15:34:14.581Z,86.60
2017-12-25T15:36:42.025Z,86.70
2017-12-25T15:39:09.465Z,86.20
2017-12-25T15:41:37.682Z,85.00
2017-12-25T15:44:05.931Z,85.60
2017-12-25T15:46:33.367Z,85.60
2017-12-25T15:49:00.802Z,86.00
2017-12-25T15:51:28.270Z,86.20
2017-12-25T15:53:55.682Z,85.90
2017-12-25T15:56:23.900Z,85.80
2017-12-25T15:58:51.309Z,85.80
2017-12-25T16:01:19.232Z,86.00
2017-12-25T16:03:46.655Z,84.40
2017-12-25T16:06:14.853Z,84.80
2017-12-25T16:08:42.305Z,84.80
2017-12-25T16:11:09.745Z,83.80
2017-12-25T16:13:37.950Z,83.60
2017-12-25T16:16:05.404Z,83.60
2017-12-25T16:18:33.207Z,83.70
2017-12-25T16:21:00.653Z,84.20
2017-12-25T16:23:28.086Z,84.10
2017-12-25T16:25:55.562Z,84.20
2017-12-25T16:28:23.027Z,84.30
2017-12-25T16:30:50.447Z,83.00
2017-12-25T16:33:18.094Z,82.60
2017-12-25T16:35:45.533Z,84.10
2017-12-25T16:38:12.975Z,85.00
2017-12-25T16:40:40.400Z,85.30
2017-12-25T16:43:07.833Z,85.70
2017-12-25T16:45:35.272Z,85.70
2017-12-25T16:48:03.477Z,86.20
2017-12-25T16:50:30.918Z,86.10
2017-12-25T16:52:58.353Z,86.10
2017-12-25T16:55:26.548Z,86.10
2017-12-25T16:57:53.976Z,86.00
2017-12-25T17:00:21.421Z,86.40
2017-12-25T17:02:48.885Z,85.90
2017-12-25T17:05:16.313Z,87.80
2017-12-25T17:07:43.755Z,87.70
2017-12-25T17:10:11.193Z,87.20
2017-12-25T17:12:38.634Z,87.70
2017-12-25T17:15:06.861Z,87.50
2017-12-25T17:17:34.334Z,87.50
2017-12-25T17:20:01.770Z,87.90
2017-12-25T17:22:29.206Z,88.70
2017-12-25T17:24:56.641Z,88.20
2017-12-25T17:27:24.853Z,89.30
2017-12-25T17:29:52.296Z,89.30
2017-12-25T17:32:19.729Z,90.00
2017-12-25T17:34:47.152Z,89.60
2017-12-25T17:37:14.609Z,90.00
2017-12-25T17:39:42.057Z,90.10
2017-12-25T17:42:10.286Z,90.00
2017-12-25T17:44:38.499Z,90.20
2017-12-25T17:47:05.941Z,90.20
2017-12-25T17:49:33.374Z,89.80
2017-12-25T17:52:01.637Z,89.20
2017-12-25T17:54:29.101Z,89.20
2017-12-25T17:56:57.314Z,89.00
2017-12-25T17:59:24.783Z,88.80
2017-12-25T18:01:52.223Z,89.30
2017-12-25T18:04:19.669Z,89.20
2017-12-25T18:06:47.096Z,89.10
2017-12-25T18:09:14.529Z,88.30
2017-12-25T18:11:41.970Z,87.90
2017-12-25T18:14:09.404Z,88.80
2017-12-25T18:16:36.832Z,89.80
2017-12-25T18:19:05.041Z,89.50
2017-12-25T18:21:32.505Z,89.10
2017-12-25T18:23:59.929Z,88.90
2017-12-25T18:26:28.140Z,87.80
2017-12-25T18:28:55.585Z,87.80
2017-12-25T18:31:23.009Z,89.00
2017-12-25T18:33:51.216Z,90.00
2017-12-25T18:36:18.645Z,89.90
2017-12-25T18:38:46.883Z,89.50
2017-12-25T18:41:14.318Z,89.40
2017-12-25T18:43:41.774Z,88.60
2017-12-25T18:46:09.216Z,89.10
2017-12-25T18:48:36.655Z,88.00
2017-12-25T18:51:04.853Z,88.70
2017-12-25T18:53:32.326Z,88.70
2017-12-25T18:55:59.753Z,90.80
2017-12-25T18:58:27.187Z,90.80
2017-12-25T19:00:54.626Z,90.60
2017-12-25T19:03:22.082Z,89.10
2017-12-25T19:05:49.932Z,90.20
2017-12-25T19:08:19.066Z,90.30
2017-12-25T19:10:46.488Z,90.30
2017-12-25T19:13:13.978Z,90.30
2017-12-25T19:15:41.430Z,90.10
2017-12-25T19:18:08.869Z,89.90
2017-12-25T19:20:36.322Z,89.80
2017-12-25T19:23:03.758Z,89.80
2017-12-25T19:25:31.196Z,89.60
2017-12-25T19:27:58.633Z,90.30
2017-12-25T19:30:26.049Z,90.60
2017-12-25T19:32:53.498Z,90.20
2017-12-25T19:35:20.925Z,90.00
2017-12-25T19:37:48.369Z,89.60
2017-12-25T19:40:16.564Z,90.10
2017-12-25T19:42:43.986Z,90.10
2017-12-25T19:45:12.185Z,90.70
2017-12-25T19:47:39.612Z,90.50
2017-12-25T19:50:07.059Z,90.50
2017-12-25T19:52:34.514Z,90.70
2017-12-25T19:55:01.920Z,90.90
2017-12-25T19:57:29.375Z,90.50
2017-12-25T19:59:57.162Z,90.60
2017-12-25T20:02:24.585Z,91.00
2017-12-25T20:04:52.783Z,90.20
2017-12-25T20:07:21.011Z,90.50
2017-12-25T20:09:48.423Z,90.50
2017-12-25T20:12:15.849Z,90.20
2017-12-25T20:14:44.051Z,91.30
2017-12-25T20:17:11.476Z,91.30
2017-12-25T20:19:39.691Z,91.00
2017-12-25T20:22:07.109Z,91.00
2017-12-25T20:24:35.322Z,91.10
2017-12-25T20:27:02.750Z,91.00
2017-12-25T20:29:30.966Z,91.00
2017-12-25T20:31:58.390Z,91.00
2017-12-25T20:34:25.841Z,90.40
2017-12-25T20:36:54.050Z,90.60
2017-12-25T20:39:21.458Z,90.60
2017-12-25T20:41:49.662Z,90.40
2017-12-25T20:44:17.088Z,90.40
2017-12-25T20:46:45.277Z,90.90
2017-12-25T20:49:13.489Z,90.00
2017-12-25T20:51:40.917Z,89.90
2017-12-25T20:54:08.366Z,88.40
2017-12-25T20:56:37.895Z,87.80
2017-12-25T20:59:05.321Z,87.70
2017-12-25T21:01:33.536Z,88.80
2017-12-25T21:04:00.967Z,88.70
2017-12-25T21:06:28.408Z,90.10
2017-12-25T21:08:57.001Z,89.80
2017-12-25T21:11:25.200Z,89.30
2017-12-25T21:13:52.637Z,89.30
2017-12-25T21:16:20.845Z,88.70
2017-12-25T21:18:48.301Z,88.60
2017-12-25T21:21:15.751Z,89.20
2017-12-25T21:23:43.181Z,89.70
2017-12-25T21:26:11.390Z,90.30
2017-12-25T21:28:45.243Z,90.30
2017-12-25T21:31:12.684Z,90.40
2017-12-25T21:33:40.112Z,90.90
2017-12-25T21:36:07.552Z,90.50
2017-12-25T21:38:34.978Z,90.50
2017-12-25T21:41:02.429Z,90.70
2017-12-25T21:43:29.858Z,90.50
2017-12-25T21:45:57.302Z,90.10
2017-12-25T21:48:24.725Z,90.00
2017-12-25T21:50:52.923Z,91.00
2017-12-25T21:53:21.260Z,91.00
2017-12-25T21:55:48.706Z,91.10
2017-12-25T21:58:16.129Z,91.40
2017-12-25T22:00:43.586Z,91.10
2017-12-25T22:03:12.005Z,91.10
2017-12-25T22:05:39.454Z,90.70
2017-12-25T22:08:06.910Z,90.70
2017-12-25T22:10:34.340Z,90.80
2017-12-25T22:13:01.765Z,90.80
2017-12-25T22:15:29.953Z,91.30
2017-12-25T22:17:57.381Z,91.30
2017-12-25T22:20:25.594Z,91.00
2017-12-25T22:22:53.031Z,91.00
2017-12-25T22:25:20.472Z,90.80
2017-12-25T22:27:48.694Z,91.50
2017-12-25T22:30:16.132Z,91.40
2017-12-25T22:32:43.626Z,91.70
2017-12-25T22:35:11.064Z,91.70
2017-12-25T22:37:38.497Z,91.80
2017-12-25T22:40:05.940Z,91.10
2017-12-25T22:42:34.133Z,91.20
2017-12-25T22:45:01.578Z,91.20
2017-12-25T22:47:29.026Z,91.50
2017-12-25T22:49:57.237Z,91.30
2017-12-25T22:52:24.665Z,91.30
2017-12-25T22:54:52.869Z,91.20
2017-12-25T22:57:20.363Z,91.20
2017-12-25T22:59:47.773Z,91.20
2017-12-25T23:02:15.220Z,91.00
2017-12-25T23:04:42.656Z,91.00
2017-12-25T23:07:10.877Z,92.00
2017-12-25T23:09:38.285Z,92.00
2017-12-25T23:12:06.497Z,91.90
2017-12-25T23:14:33.930Z,91.70
2017-12-25T23:17:02.153Z,91.90
2017-12-25T23:19:29.598Z,91.90
2017-12-25T23:21:57.043Z,92.10
2017-12-25T23:24:25.417Z,92.10
2017-12-25T23:26:52.849Z,92.10
2017-12-25T23:29:21.066Z,91.60
2017-12-25T23:31:48.509Z,91.60
2017-12-25T23:34:15.930Z,91.80
2017-12-25T23:36:43.365Z,91.70
2017-12-25T23:39:11.552Z,91.40
2017-12-25T23:41:38.984Z,91.80
2017-12-25T23:44:06.409Z,91.20
2017-12-25T23:46:33.841Z,91.10
2017-12-25T23:49:02.035Z,91.50
2017-12-25T23:51:30.240Z,91.40
2017-12-25T23:53:57.696Z,91.40
2017-12-25T23:56:25.151Z,91.20
2017-12-25T23:58:52.607Z,91.40
